sensor_id;sensor_type;location;lat;lon;timestamp;P1;durP1;ratioP1;P2;durP2;ratioP2
49131;SDS011;35149;51.196;6.204;2022-07-25T00:00:15;7.78;;;7.00;;
49131;SDS011;35149;51.196;6.204;2022-07-25T00:02:44;7.43;;;6.63;;
49131;SDS011;35149;51.196;6.204;2022-07-25T00:05:11;7.25;;;6.65;;
49131;SDS011;35149;51.196;6.204;2022-07-25T00:07:37;6.60;;;6.00;;
49131;SDS011;35149;51.196;6.204;2022-07-25T00:10:07;7.78;;;6.63;;
49131;SDS011;35149;51.196;6.204;2022-07-25T00:12:34;6.90;;;6.13;;
49131;SDS011;35149;51.196;6.204;2022-07-25T00:15:03;7.28;;;6.63;;
49131;SDS011;35149;51.196;6.204;2022-07-25T00:17:31;6.88;;;6.28;;
49131;SDS011;35149;51.196;6.204;2022-07-25T00:20:00;9.48;;;6.90;;
49131;SDS011;35149;51.196;6.204;2022-07-25T00:22:28;7.68;;;7.00;;
49131;SDS011;35149;51.196;6.204;2022-07-25T00:24:56;7.65;;;6.88;;
49131;SDS011;35149;51.196;6.204;2022-07-25T00:27:23;7.15;;;6.47;;
49131;SDS011;35149;51.196;6.204;2022-07-25T00:29:50;7.78;;;7.03;;
49131;SDS011;35149;51.196;6.204;2022-07-25T00:32:21;6.88;;;6.00;;
49131;SDS011;35149;51.196;6.204;2022-07-25T00:34:51;6.88;;;6.20;;
49131;SDS011;35149;51.196;6.204;2022-07-25T00:37:17;7.07;;;6.30;;
49131;SDS011;35149;51.196;6.204;2022-07-25T00:39:44;7.38;;;6.65;;
49131;SDS011;35149;51.196;6.204;2022-07-25T00:42:17;8.40;;;6.03;;
49131;SDS011;35149;51.196;6.204;2022-07-25T00:49:53;5.90;;;5.38;;
49131;SDS011;35149;51.196;6.204;2022-07-25T00:52:20;6.28;;;5.70;;
49131;SDS011;35149;51.196;6.204;2022-07-25T00:54:49;7.55;;;6.85;;
49131;SDS011;35149;51.196;6.204;2022-07-25T00:57:17;7.07;;;6.38;;
49131;SDS011;35149;51.196;6.204;2022-07-25T00:59:45;7.05;;;6.45;;
49131;SDS011;35149;51.196;6.204;2022-07-25T01:02:12;6.60;;;6.10;;
49131;SDS011;35149;51.196;6.204;2022-07-25T01:04:42;6.95;;;6.25;;
49131;SDS011;35149;51.196;6.204;2022-07-25T01:07:09;7.38;;;6.68;;
49131;SDS011;35149;51.196;6.204;2022-07-25T01:09:38;6.53;;;5.93;;
49131;SDS011;35149;51.196;6.204;2022-07-25T01:12:08;6.68;;;6.03;;
49131;SDS011;35149;51.196;6.204;2022-07-25T01:14:36;7.90;;;5.70;;
49131;SDS011;35149;51.196;6.204;2022-07-25T01:17:11;6.22;;;5.68;;
49131;SDS011;35149;51.196;6.204;2022-07-25T01:19:38;7.45;;;5.80;;
49131;SDS011;35149;51.196;6.204;2022-07-25T01:22:05;7.68;;;6.50;;
49131;SDS011;35149;51.196;6.204;2022-07-25T01:24:37;6.53;;;5.90;;
49131;SDS011;35149;51.196;6.204;2022-07-25T01:27:07;6.07;;;5.57;;
49131;SDS011;35149;51.196;6.204;2022-07-25T01:29:43;5.78;;;5.18;;
49131;SDS011;35149;51.196;6.204;2022-07-25T01:32:12;7.03;;;6.00;;
49131;SDS011;35149;51.196;6.204;2022-07-25T01:34:39;6.65;;;6.05;;
49131;SDS011;35149;51.196;6.204;2022-07-25T01:37:06;7.25;;;5.93;;
49131;SDS011;35149;51.196;6.204;2022-07-25T01:39:36;5.80;;;5.30;;
49131;SDS011;35149;51.196;6.204;2022-07-25T01:42:07;6.25;;;5.65;;
49131;SDS011;35149;51.196;6.204;2022-07-25T01:44:36;6.53;;;5.90;;
49131;SDS011;35149;51.196;6.204;2022-07-25T01:47:05;7.38;;;5.78;;
49131;SDS011;35149;51.196;6.204;2022-07-25T01:49:31;6.72;;;6.13;;
49131;SDS011;35149;51.196;6.204;2022-07-25T01:52:02;6.78;;;5.22;;
49131;SDS011;35149;51.196;6.204;2022-07-25T01:54:29;6.53;;;5.82;;
49131;SDS011;35149;51.196;6.204;2022-07-25T01:56:57;6.53;;;5.45;;
49131;SDS011;35149;51.196;6.204;2022-07-25T01:59:24;5.80;;;5.30;;
49131;SDS011;35149;51.196;6.204;2022-07-25T02:01:51;6.60;;;5.45;;
49131;SDS011;35149;51.196;6.204;2022-07-25T02:04:19;5.97;;;5.28;;
49131;SDS011;35149;51.196;6.204;2022-07-25T02:06:48;6.70;;;6.00;;
49131;SDS011;35149;51.196;6.204;2022-07-25T02:09:18;5.93;;;5.43;;
49131;SDS011;35149;51.196;6.204;2022-07-25T02:11:47;7.38;;;6.30;;
49131;SDS011;35149;51.196;6.204;2022-07-25T02:14:14;6.40;;;5.18;;
49131;SDS011;35149;51.196;6.204;2022-07-25T02:16:41;7.00;;;5.97;;
49131;SDS011;35149;51.196;6.204;2022-07-25T02:19:07;7.25;;;4.97;;
49131;SDS011;35149;51.196;6.204;2022-07-25T02:21:35;5.82;;;5.15;;
49131;SDS011;35149;51.196;6.204;2022-07-25T02:24:06;6.13;;;5.60;;
49131;SDS011;35149;51.196;6.204;2022-07-25T02:26:36;6.50;;;5.30;;
49131;SDS011;35149;51.196;6.204;2022-07-25T02:29:05;6.18;;;5.57;;
49131;SDS011;35149;51.196;6.204;2022-07-25T02:31:32;6.90;;;6.25;;
49131;SDS011;35149;51.196;6.204;2022-07-25T02:34:01;5.68;;;5.15;;
49131;SDS011;35149;51.196;6.204;2022-07-25T02:36:28;6.60;;;5.85;;
49131;SDS011;35149;51.196;6.204;2022-07-25T02:38:55;6.00;;;5.40;;
49131;SDS011;35149;51.196;6.204;2022-07-25T02:41:24;9.02;;;5.75;;
49131;SDS011;35149;51.196;6.204;2022-07-25T02:43:53;8.00;;;5.90;;
49131;SDS011;35149;51.196;6.204;2022-07-25T02:46:25;6.57;;;5.57;;
49131;SDS011;35149;51.196;6.204;2022-07-25T02:48:52;6.25;;;5.65;;
49131;SDS011;35149;51.196;6.204;2022-07-25T02:51:21;5.78;;;5.03;;
49131;SDS011;35149;51.196;6.204;2022-07-25T02:53:51;5.63;;;5.13;;
49131;SDS011;35149;51.196;6.204;2022-07-25T02:58:52;6.57;;;5.22;;
49131;SDS011;35149;51.196;6.204;2022-07-25T03:01:23;5.97;;;5.35;;
49131;SDS011;35149;51.196;6.204;2022-07-25T03:03:55;6.13;;;5.53;;
49131;SDS011;35149;51.196;6.204;2022-07-25T03:06:22;6.32;;;5.70;;
49131;SDS011;35149;51.196;6.204;2022-07-25T03:08:49;7.00;;;6.30;;
49131;SDS011;35149;51.196;6.204;2022-07-25T03:11:18;7.25;;;5.50;;
49131;SDS011;35149;51.196;6.204;2022-07-25T03:13:45;5.85;;;5.28;;
49131;SDS011;35149;51.196;6.204;2022-07-25T03:16:16;5.70;;;4.93;;
49131;SDS011;35149;51.196;6.204;2022-07-25T03:18:43;7.40;;;5.85;;
49131;SDS011;35149;51.196;6.204;2022-07-25T03:21:09;6.30;;;5.70;;
49131;SDS011;35149;51.196;6.204;2022-07-25T03:23:39;6.60;;;6.00;;
49131;SDS011;35149;51.196;6.204;2022-07-25T03:26:05;6.65;;;5.60;;
49131;SDS011;35149;51.196;6.204;2022-07-25T03:28:37;6.35;;;5.40;;
49131;SDS011;35149;51.196;6.204;2022-07-25T03:31:08;6.82;;;5.40;;
49131;SDS011;35149;51.196;6.204;2022-07-25T03:33:35;5.70;;;5.15;;
49131;SDS011;35149;51.196;6.204;2022-07-25T03:36:03;6.75;;;5.75;;
49131;SDS011;35149;51.196;6.204;2022-07-25T03:38:29;7.32;;;5.63;;
49131;SDS011;35149;51.196;6.204;2022-07-25T03:40:56;6.63;;;5.90;;
49131;SDS011;35149;51.196;6.204;2022-07-25T03:43:26;7.43;;;5.95;;
49131;SDS011;35149;51.196;6.204;2022-07-25T03:45:54;8.20;;;5.77;;
49131;SDS011;35149;51.196;6.204;2022-07-25T03:48:23;6.18;;;5.65;;
49131;SDS011;35149;51.196;6.204;2022-07-25T03:50:57;6.45;;;5.85;;
49131;SDS011;35149;51.196;6.204;2022-07-25T03:56:19;6.45;;;5.78;;
49131;SDS011;35149;51.196;6.204;2022-07-25T03:58:50;7.07;;;5.85;;
49131;SDS011;35149;51.196;6.204;2022-07-25T04:01:20;6.45;;;5.72;;
49131;SDS011;35149;51.196;6.204;2022-07-25T04:03:50;8.63;;;6.43;;
49131;SDS011;35149;51.196;6.204;2022-07-25T04:06:18;7.78;;;6.50;;
49131;SDS011;35149;51.196;6.204;2022-07-25T04:08:48;7.45;;;6.20;;
49131;SDS011;35149;51.196;6.204;2022-07-25T04:11:16;7.72;;;6.28;;
49131;SDS011;35149;51.196;6.204;2022-07-25T04:13:46;6.85;;;6.07;;
49131;SDS011;35149;51.196;6.204;2022-07-25T04:16:15;7.85;;;6.18;;
49131;SDS011;35149;51.196;6.204;2022-07-25T04:18:48;9.35;;;6.10;;
49131;SDS011;35149;51.196;6.204;2022-07-25T04:21:16;8.48;;;6.63;;
49131;SDS011;35149;51.196;6.204;2022-07-25T04:23:43;7.15;;;5.78;;
49131;SDS011;35149;51.196;6.204;2022-07-25T04:26:13;6.13;;;5.53;;
49131;SDS011;35149;51.196;6.204;2022-07-25T04:28:42;7.32;;;5.80;;
49131;SDS011;35149;51.196;6.204;2022-07-25T04:31:09;7.88;;;6.03;;
49131;SDS011;35149;51.196;6.204;2022-07-25T04:33:40;7.75;;;6.60;;
49131;SDS011;35149;51.196;6.204;2022-07-25T04:36:07;7.18;;;6.47;;
49131;SDS011;35149;51.196;6.204;2022-07-25T04:38:35;6.40;;;5.78;;
49131;SDS011;35149;51.196;6.204;2022-07-25T04:41:02;7.15;;;6.45;;
49131;SDS011;35149;51.196;6.204;2022-07-25T04:43:30;8.73;;;6.00;;
49131;SDS011;35149;51.196;6.204;2022-07-25T04:45:56;6.82;;;6.13;;
49131;SDS011;35149;51.196;6.204;2022-07-25T04:48:35;7.75;;;6.30;;
49131;SDS011;35149;51.196;6.204;2022-07-25T04:51:02;7.50;;;6.20;;
49131;SDS011;35149;51.196;6.204;2022-07-25T04:53:38;7.30;;;6.00;;
49131;SDS011;35149;51.196;6.204;2022-07-25T04:56:05;7.05;;;6.35;;
49131;SDS011;35149;51.196;6.204;2022-07-25T04:58:42;7.18;;;5.40;;
49131;SDS011;35149;51.196;6.204;2022-07-25T05:01:09;7.40;;;6.15;;
49131;SDS011;35149;51.196;6.204;2022-07-25T05:03:37;7.45;;;5.93;;
49131;SDS011;35149;51.196;6.204;2022-07-25T05:06:04;7.65;;;5.35;;
49131;SDS011;35149;51.196;6.204;2022-07-25T05:08:32;7.22;;;5.78;;
49131;SDS011;35149;51.196;6.204;2022-07-25T05:11:01;7.75;;;5.15;;
49131;SDS011;35149;51.196;6.204;2022-07-25T05:13:28;6.25;;;5.65;;
49131;SDS011;35149;51.196;6.204;2022-07-25T05:15:56;5.75;;;5.25;;
49131;SDS011;35149;51.196;6.204;2022-07-25T05:18:23;6.45;;;5.85;;
49131;SDS011;35149;51.196;6.204;2022-07-25T05:20:54;6.75;;;5.75;;
49131;SDS011;35149;51.196;6.204;2022-07-25T05:23:24;6.68;;;5.82;;
49131;SDS011;35149;51.196;6.204;2022-07-25T05:25:50;6.57;;;5.85;;
49131;SDS011;35149;51.196;6.204;2022-07-25T05:28:17;11.57;;;5.85;;
49131;SDS011;35149;51.196;6.204;2022-07-25T05:30:44;8.77;;;5.88;;
49131;SDS011;35149;51.196;6.204;2022-07-25T05:33:13;6.55;;;5.95;;
49131;SDS011;35149;51.196;6.204;2022-07-25T05:35:42;6.68;;;5.38;;
49131;SDS011;35149;51.196;6.204;2022-07-25T05:38:11;6.72;;;5.70;;
49131;SDS011;35149;51.196;6.204;2022-07-25T05:40:41;6.20;;;5.60;;
49131;SDS011;35149;51.196;6.204;2022-07-25T05:43:11;7.28;;;5.68;;
49131;SDS011;35149;51.196;6.204;2022-07-25T05:45:39;7.93;;;6.38;;
49131;SDS011;35149;51.196;6.204;2022-07-25T05:48:05;7.97;;;5.75;;
49131;SDS011;35149;51.196;6.204;2022-07-25T05:50:32;7.20;;;6.05;;
49131;SDS011;35149;51.196;6.204;2022-07-25T05:53:01;6.43;;;5.30;;
49131;SDS011;35149;51.196;6.204;2022-07-25T05:55:28;6.47;;;5.75;;
49131;SDS011;35149;51.196;6.204;2022-07-25T05:57:54;6.18;;;5.57;;
49131;SDS011;35149;51.196;6.204;2022-07-25T06:00:21;7.20;;;5.63;;
49131;SDS011;35149;51.196;6.204;2022-07-25T06:02:51;6.05;;;5.47;;
49131;SDS011;35149;51.196;6.204;2022-07-25T06:05:18;10.30;;;5.70;;
49131;SDS011;35149;51.196;6.204;2022-07-25T06:07:45;6.15;;;5.45;;
49131;SDS011;35149;51.196;6.204;2022-07-25T06:10:11;9.48;;;5.70;;
49131;SDS011;35149;51.196;6.204;2022-07-25T06:12:38;8.43;;;5.18;;
49131;SDS011;35149;51.196;6.204;2022-07-25T06:15:08;5.70;;;5.22;;
49131;SDS011;35149;51.196;6.204;2022-07-25T06:17:47;5.20;;;4.80;;
49131;SDS011;35149;51.196;6.204;2022-07-25T06:20:14;6.10;;;4.30;;
49131;SDS011;35149;51.196;6.204;2022-07-25T06:22:41;4.70;;;4.30;;
49131;SDS011;35149;51.196;6.204;2022-07-25T06:25:08;5.85;;;4.88;;
49131;SDS011;35149;51.196;6.204;2022-07-25T06:27:36;5.32;;;4.78;;
49131;SDS011;35149;51.196;6.204;2022-07-25T06:30:04;7.18;;;5.45;;
49131;SDS011;35149;51.196;6.204;2022-07-25T06:32:48;5.82;;;4.45;;
49131;SDS011;35149;51.196;6.204;2022-07-25T06:35:17;6.43;;;5.28;;
49131;SDS011;35149;51.196;6.204;2022-07-25T06:37:44;6.82;;;5.32;;
49131;SDS011;35149;51.196;6.204;2022-07-25T06:40:12;5.47;;;4.80;;
49131;SDS011;35149;51.196;6.204;2022-07-25T06:42:40;6.38;;;5.00;;
49131;SDS011;35149;51.196;6.204;2022-07-25T06:45:13;6.07;;;5.15;;
49131;SDS011;35149;51.196;6.204;2022-07-25T06:47:42;5.70;;;5.13;;
49131;SDS011;35149;51.196;6.204;2022-07-25T06:50:17;6.20;;;5.03;;
49131;SDS011;35149;51.196;6.204;2022-07-25T06:52:47;5.70;;;4.97;;
49131;SDS011;35149;51.196;6.204;2022-07-25T06:55:21;7.80;;;5.40;;
49131;SDS011;35149;51.196;6.204;2022-07-25T06:57:48;5.88;;;5.03;;
49131;SDS011;35149;51.196;6.204;2022-07-25T07:00:15;5.38;;;4.88;;
49131;SDS011;35149;51.196;6.204;2022-07-25T07:02:52;5.22;;;4.70;;
49131;SDS011;35149;51.196;6.204;2022-07-25T07:05:24;5.10;;;4.47;;
49131;SDS011;35149;51.196;6.204;2022-07-25T07:07:57;5.22;;;4.82;;
49131;SDS011;35149;51.196;6.204;2022-07-25T07:10:27;5.93;;;5.22;;
49131;SDS011;35149;51.196;6.204;2022-07-25T07:13:07;6.18;;;5.68;;
49131;SDS011;35149;51.196;6.204;2022-07-25T07:15:37;5.97;;;5.38;;
49131;SDS011;35149;51.196;6.204;2022-07-25T07:18:09;7.10;;;5.50;;
49131;SDS011;35149;51.196;6.204;2022-07-25T07:20:35;5.45;;;4.70;;
49131;SDS011;35149;51.196;6.204;2022-07-25T07:23:05;5.97;;;5.43;;
49131;SDS011;35149;51.196;6.204;2022-07-25T07:25:37;7.35;;;5.25;;
49131;SDS011;35149;51.196;6.204;2022-07-25T07:28:08;6.43;;;5.47;;
49131;SDS011;35149;51.196;6.204;2022-07-25T07:30:35;5.40;;;4.65;;
49131;SDS011;35149;51.196;6.204;2022-07-25T07:33:22;6.00;;;5.40;;
49131;SDS011;35149;51.196;6.204;2022-07-25T07:35:49;7.88;;;5.20;;
49131;SDS011;35149;51.196;6.204;2022-07-25T07:38:17;7.18;;;5.25;;
49131;SDS011;35149;51.196;6.204;2022-07-25T07:40:45;5.65;;;5.15;;
49131;SDS011;35149;51.196;6.204;2022-07-25T07:43:12;6.85;;;5.55;;
49131;SDS011;35149;51.196;6.204;2022-07-25T07:45:38;6.93;;;5.88;;
49131;SDS011;35149;51.196;6.204;2022-07-25T07:48:06;5.88;;;5.07;;
49131;SDS011;35149;51.196;6.204;2022-07-25T07:50:35;5.97;;;5.28;;
49131;SDS011;35149;51.196;6.204;2022-07-25T07:53:08;7.00;;;5.03;;
49131;SDS011;35149;51.196;6.204;2022-07-25T07:55:34;5.93;;;5.32;;
49131;SDS011;35149;51.196;6.204;2022-07-25T07:58:14;6.00;;;5.40;;
49131;SDS011;35149;51.196;6.204;2022-07-25T08:03:21;10.77;;;6.05;;
49131;SDS011;35149;51.196;6.204;2022-07-25T08:05:50;7.35;;;4.72;;
49131;SDS011;35149;51.196;6.204;2022-07-25T08:08:20;10.05;;;5.43;;
49131;SDS011;35149;51.196;6.204;2022-07-25T08:10:47;20.38;;;6.78;;
49131;SDS011;35149;51.196;6.204;2022-07-25T08:13:25;8.90;;;5.72;;
49131;SDS011;35149;51.196;6.204;2022-07-25T08:15:59;4.97;;;4.15;;
49131;SDS011;35149;51.196;6.204;2022-07-25T08:18:31;5.00;;;4.25;;
49131;SDS011;35149;51.196;6.204;2022-07-25T08:20:59;6.90;;;4.50;;
49131;SDS011;35149;51.196;6.204;2022-07-25T08:23:32;4.60;;;4.00;;
49131;SDS011;35149;51.196;6.204;2022-07-25T08:26:09;5.47;;;4.20;;
49131;SDS011;35149;51.196;6.204;2022-07-25T08:28:36;3.92;;;3.63;;
49131;SDS011;35149;51.196;6.204;2022-07-25T08:31:05;4.80;;;4.25;;
49131;SDS011;35149;51.196;6.204;2022-07-25T08:33:37;3.90;;;3.53;;
49131;SDS011;35149;51.196;6.204;2022-07-25T08:36:06;4.05;;;3.72;;
49131;SDS011;35149;51.196;6.204;2022-07-25T08:41:02;5.90;;;3.78;;
49131;SDS011;35149;51.196;6.204;2022-07-25T08:43:29;3.97;;;3.25;;
49131;SDS011;35149;51.196;6.204;2022-07-25T08:46:05;4.55;;;4.10;;
49131;SDS011;35149;51.196;6.204;2022-07-25T08:48:35;5.88;;;3.70;;
49131;SDS011;35149;51.196;6.204;2022-07-25T08:51:03;3.90;;;3.60;;
49131;SDS011;35149;51.196;6.204;2022-07-25T08:53:32;4.30;;;3.42;;
49131;SDS011;35149;51.196;6.204;2022-07-25T08:56:05;6.40;;;3.50;;
49131;SDS011;35149;51.196;6.204;2022-07-25T08:58:44;6.53;;;3.45;;
49131;SDS011;35149;51.196;6.204;2022-07-25T09:01:13;3.50;;;3.20;;
49131;SDS011;35149;51.196;6.204;2022-07-25T09:03:41;3.45;;;3.17;;
49131;SDS011;35149;51.196;6.204;2022-07-25T09:06:12;4.05;;;3.08;;
49131;SDS011;35149;51.196;6.204;2022-07-25T09:08:52;3.30;;;3.00;;
49131;SDS011;35149;51.196;6.204;2022-07-25T09:14:05;4.95;;;3.20;;
49131;SDS011;35149;51.196;6.204;2022-07-25T09:16:41;4.28;;;2.90;;
49131;SDS011;35149;51.196;6.204;2022-07-25T09:19:13;4.45;;;2.65;;
49131;SDS011;35149;51.196;6.204;2022-07-25T09:21:55;2.97;;;2.72;;
49131;SDS011;35149;51.196;6.204;2022-07-25T09:24:27;3.38;;;2.33;;
49131;SDS011;35149;51.196;6.204;2022-07-25T09:26:56;4.38;;;2.63;;
49131;SDS011;35149;51.196;6.204;2022-07-25T09:31:54;2.80;;;2.10;;
49131;SDS011;35149;51.196;6.204;2022-07-25T09:34:32;3.60;;;2.30;;
49131;SDS011;35149;51.196;6.204;2022-07-25T09:37:09;2.60;;;1.70;;
49131;SDS011;35149;51.196;6.204;2022-07-25T09:39:41;2.55;;;2.00;;
49131;SDS011;35149;51.196;6.204;2022-07-25T09:42:26;1.90;;;1.80;;
49131;SDS011;35149;51.196;6.204;2022-07-25T09:44:58;2.28;;;2.08;;
49131;SDS011;35149;51.196;6.204;2022-07-25T09:47:30;3.03;;;1.70;;
49131;SDS011;35149;51.196;6.204;2022-07-25T09:52:30;3.08;;;2.42;;
49131;SDS011;35149;51.196;6.204;2022-07-25T09:55:00;3.53;;;1.90;;
49131;SDS011;35149;51.196;6.204;2022-07-25T09:57:28;4.75;;;1.90;;
49131;SDS011;35149;51.196;6.204;2022-07-25T09:59:57;4.85;;;2.63;;
49131;SDS011;35149;51.196;6.204;2022-07-25T10:02:45;4.55;;;2.10;;
49131;SDS011;35149;51.196;6.204;2022-07-25T10:08:19;3.60;;;2.15;;
49131;SDS011;35149;51.196;6.204;2022-07-25T10:10:47;2.97;;;2.30;;
49131;SDS011;35149;51.196;6.204;2022-07-25T10:13:16;3.30;;;2.53;;
49131;SDS011;35149;51.196;6.204;2022-07-25T10:15:54;3.75;;;2.97;;
49131;SDS011;35149;51.196;6.204;2022-07-25T10:18:23;2.65;;;2.28;;
49131;SDS011;35149;51.196;6.204;2022-07-25T10:20:52;3.33;;;2.40;;
49131;SDS011;35149;51.196;6.204;2022-07-25T10:24:01;3.00;;;2.42;;
49131;SDS011;35149;51.196;6.204;2022-07-25T10:26:33;3.38;;;1.83;;
49131;SDS011;35149;51.196;6.204;2022-07-25T10:29:08;4.65;;;2.03;;
49131;SDS011;35149;51.196;6.204;2022-07-25T10:31:42;2.63;;;1.77;;
49131;SDS011;35149;51.196;6.204;2022-07-25T10:34:26;3.00;;;1.95;;
49131;SDS011;35149;51.196;6.204;2022-07-25T10:36:56;2.58;;;1.77;;
49131;SDS011;35149;51.196;6.204;2022-07-25T10:39:40;2.60;;;2.40;;
49131;SDS011;35149;51.196;6.204;2022-07-25T10:42:14;5.17;;;3.10;;
49131;SDS011;35149;51.196;6.204;2022-07-25T10:44:52;3.00;;;2.67;;
49131;SDS011;35149;51.196;6.204;2022-07-25T10:47:23;2.80;;;2.33;;
49131;SDS011;35149;51.196;6.204;2022-07-25T10:52:44;6.80;;;2.90;;
49131;SDS011;35149;51.196;6.204;2022-07-25T10:55:28;5.35;;;2.50;;
49131;SDS011;35149;51.196;6.204;2022-07-25T10:58:01;4.53;;;2.75;;
49131;SDS011;35149;51.196;6.204;2022-07-25T11:00:52;4.45;;;2.13;;
49131;SDS011;35149;51.196;6.204;2022-07-25T11:03:20;2.70;;;1.70;;
49131;SDS011;35149;51.196;6.204;2022-07-25T11:05:47;2.95;;;1.70;;
49131;SDS011;35149;51.196;6.204;2022-07-25T11:08:16;3.28;;;1.73;;
49131;SDS011;35149;51.196;6.204;2022-07-25T11:10:57;5.78;;;1.90;;
49131;SDS011;35149;51.196;6.204;2022-07-25T11:13:27;3.08;;;1.85;;
49131;SDS011;35149;51.196;6.204;2022-07-25T11:18:30;1.98;;;1.73;;
49131;SDS011;35149;51.196;6.204;2022-07-25T11:21:03;2.42;;;1.88;;
49131;SDS011;35149;51.196;6.204;2022-07-25T11:23:34;3.30;;;2.25;;
49131;SDS011;35149;51.196;6.204;2022-07-25T11:26:09;4.18;;;2.45;;
49131;SDS011;35149;51.196;6.204;2022-07-25T11:31:10;5.32;;;2.40;;
49131;SDS011;35149;51.196;6.204;2022-07-25T11:33:46;2.53;;;1.80;;
49131;SDS011;35149;51.196;6.204;2022-07-25T11:36:16;3.13;;;2.08;;
49131;SDS011;35149;51.196;6.204;2022-07-25T11:38:45;4.00;;;2.40;;
49131;SDS011;35149;51.196;6.204;2022-07-25T11:41:13;2.67;;;1.83;;
49131;SDS011;35149;51.196;6.204;2022-07-25T11:43:47;2.65;;;2.22;;
49131;SDS011;35149;51.196;6.204;2022-07-25T11:46:18;3.90;;;2.42;;
49131;SDS011;35149;51.196;6.204;2022-07-25T11:48:47;2.72;;;1.90;;
49131;SDS011;35149;51.196;6.204;2022-07-25T11:51:15;2.78;;;2.10;;
49131;SDS011;35149;51.196;6.204;2022-07-25T11:53:49;1.90;;;1.50;;
49131;SDS011;35149;51.196;6.204;2022-07-25T11:56:19;4.22;;;1.52;;
49131;SDS011;35149;51.196;6.204;2022-07-25T11:59:08;3.25;;;1.60;;
49131;SDS011;35149;51.196;6.204;2022-07-25T12:01:37;1.98;;;1.60;;
49131;SDS011;35149;51.196;6.204;2022-07-25T12:04:09;1.85;;;1.30;;
49131;SDS011;35149;51.196;6.204;2022-07-25T12:06:45;3.55;;;1.73;;
49131;SDS011;35149;51.196;6.204;2022-07-25T12:09:17;2.28;;;1.75;;
49131;SDS011;35149;51.196;6.204;2022-07-25T12:11:47;2.75;;;1.60;;
49131;SDS011;35149;51.196;6.204;2022-07-25T12:14:14;2.63;;;1.90;;
49131;SDS011;35149;51.196;6.204;2022-07-25T12:16:41;5.20;;;1.80;;
49131;SDS011;35149;51.196;6.204;2022-07-25T12:19:16;2.10;;;1.58;;
49131;SDS011;35149;51.196;6.204;2022-07-25T12:21:44;2.15;;;1.60;;
49131;SDS011;35149;51.196;6.204;2022-07-25T12:24:13;2.22;;;1.63;;
49131;SDS011;35149;51.196;6.204;2022-07-25T12:26:42;3.13;;;1.33;;
49131;SDS011;35149;51.196;6.204;2022-07-25T12:29:09;4.53;;;1.92;;
49131;SDS011;35149;51.196;6.204;2022-07-25T12:31:38;2.55;;;1.50;;
49131;SDS011;35149;51.196;6.204;2022-07-25T12:34:05;8.40;;;1.50;;
49131;SDS011;35149;51.196;6.204;2022-07-25T12:36:31;3.22;;;1.33;;
49131;SDS011;35149;51.196;6.204;2022-07-25T12:39:00;3.33;;;1.48;;
49131;SDS011;35149;51.196;6.204;2022-07-25T12:41:27;3.55;;;2.22;;
49131;SDS011;35149;51.196;6.204;2022-07-25T12:43:55;2.67;;;1.88;;
49131;SDS011;35149;51.196;6.204;2022-07-25T12:46:28;2.30;;;1.30;;
49131;SDS011;35149;51.196;6.204;2022-07-25T12:48:58;1.88;;;1.25;;
49131;SDS011;35149;51.196;6.204;2022-07-25T12:51:27;2.15;;;1.30;;
49131;SDS011;35149;51.196;6.204;2022-07-25T12:53:53;2.60;;;1.33;;
49131;SDS011;35149;51.196;6.204;2022-07-25T12:56:20;1.75;;;1.50;;
49131;SDS011;35149;51.196;6.204;2022-07-25T12:58:47;3.28;;;1.50;;
49131;SDS011;35149;51.196;6.204;2022-07-25T13:01:20;2.50;;;1.67;;
49131;SDS011;35149;51.196;6.204;2022-07-25T13:03:47;2.10;;;1.70;;
49131;SDS011;35149;51.196;6.204;2022-07-25T13:06:13;5.55;;;1.33;;
49131;SDS011;35149;51.196;6.204;2022-07-25T13:08:40;1.95;;;1.35;;
49131;SDS011;35149;51.196;6.204;2022-07-25T13:11:14;2.70;;;1.48;;
49131;SDS011;35149;51.196;6.204;2022-07-25T13:13:44;1.58;;;1.30;;
49131;SDS011;35149;51.196;6.204;2022-07-25T13:16:11;2.78;;;1.35;;
49131;SDS011;35149;51.196;6.204;2022-07-25T13:18:41;2.20;;;1.13;;
49131;SDS011;35149;51.196;6.204;2022-07-25T13:21:09;4.28;;;1.27;;
49131;SDS011;35149;51.196;6.204;2022-07-25T13:23:36;3.22;;;1.70;;
49131;SDS011;35149;51.196;6.204;2022-07-25T13:26:08;2.22;;;1.50;;
49131;SDS011;35149;51.196;6.204;2022-07-25T13:28:37;3.40;;;1.23;;
49131;SDS011;35149;51.196;6.204;2022-07-25T13:31:07;1.00;;;1.00;;
49131;SDS011;35149;51.196;6.204;2022-07-25T13:33:38;4.68;;;1.80;;
49131;SDS011;35149;51.196;6.204;2022-07-25T13:36:05;2.13;;;1.45;;
49131;SDS011;35149;51.196;6.204;2022-07-25T13:38:36;3.85;;;1.27;;
49131;SDS011;35149;51.196;6.204;2022-07-25T13:41:06;4.32;;;1.92;;
49131;SDS011;35149;51.196;6.204;2022-07-25T13:43:34;3.92;;;1.48;;
49131;SDS011;35149;51.196;6.204;2022-07-25T13:46:03;2.78;;;1.40;;
49131;SDS011;35149;51.196;6.204;2022-07-25T13:48:36;2.53;;;1.60;;
49131;SDS011;35149;51.196;6.204;2022-07-25T13:51:06;4.25;;;1.52;;
49131;SDS011;35149;51.196;6.204;2022-07-25T13:53:32;5.30;;;1.63;;
49131;SDS011;35149;51.196;6.204;2022-07-25T13:56:01;7.15;;;1.98;;
49131;SDS011;35149;51.196;6.204;2022-07-25T13:58:28;5.80;;;1.55;;
49131;SDS011;35149;51.196;6.204;2022-07-25T14:00:56;3.38;;;1.67;;
49131;SDS011;35149;51.196;6.204;2022-07-25T14:03:30;2.80;;;1.50;;
49131;SDS011;35149;51.196;6.204;2022-07-25T14:05:58;2.67;;;1.50;;
49131;SDS011;35149;51.196;6.204;2022-07-25T14:08:25;4.57;;;1.73;;
49131;SDS011;35149;51.196;6.204;2022-07-25T14:10:57;1.80;;;1.55;;
49131;SDS011;35149;51.196;6.204;2022-07-25T14:13:23;4.13;;;2.08;;
49131;SDS011;35149;51.196;6.204;2022-07-25T14:15:50;2.42;;;1.75;;
49131;SDS011;35149;51.196;6.204;2022-07-25T14:18:17;2.30;;;1.80;;
49131;SDS011;35149;51.196;6.204;2022-07-25T14:20:46;4.72;;;1.70;;
49131;SDS011;35149;51.196;6.204;2022-07-25T14:23:15;4.63;;;1.80;;
49131;SDS011;35149;51.196;6.204;2022-07-25T14:25:42;5.40;;;2.10;;
49131;SDS011;35149;51.196;6.204;2022-07-25T14:28:09;6.82;;;2.38;;
49131;SDS011;35149;51.196;6.204;2022-07-25T14:30:39;5.38;;;2.22;;
49131;SDS011;35149;51.196;6.204;2022-07-25T14:33:08;3.10;;;1.77;;
49131;SDS011;35149;51.196;6.204;2022-07-25T14:35:34;4.82;;;2.25;;
49131;SDS011;35149;51.196;6.204;2022-07-25T14:38:02;3.75;;;2.45;;
49131;SDS011;35149;51.196;6.204;2022-07-25T14:40:32;3.63;;;1.77;;
49131;SDS011;35149;51.196;6.204;2022-07-25T14:42:59;4.47;;;1.90;;
49131;SDS011;35149;51.196;6.204;2022-07-25T14:45:26;3.20;;;1.50;;
49131;SDS011;35149;51.196;6.204;2022-07-25T14:47:55;3.97;;;1.60;;
49131;SDS011;35149;51.196;6.204;2022-07-25T14:50:22;1.30;;;1.02;;
49131;SDS011;35149;51.196;6.204;2022-07-25T14:52:52;1.25;;;1.15;;
49131;SDS011;35149;51.196;6.204;2022-07-25T14:55:28;4.22;;;1.88;;
49131;SDS011;35149;51.196;6.204;2022-07-25T14:57:55;2.28;;;1.30;;
49131;SDS011;35149;51.196;6.204;2022-07-25T15:00:24;2.47;;;1.00;;
49131;SDS011;35149;51.196;6.204;2022-07-25T15:02:55;1.63;;;0.93;;
49131;SDS011;35149;51.196;6.204;2022-07-25T15:05:22;3.63;;;1.00;;
49131;SDS011;35149;51.196;6.204;2022-07-25T15:07:49;4.28;;;1.50;;
49131;SDS011;35149;51.196;6.204;2022-07-25T15:10:16;1.50;;;1.20;;
49131;SDS011;35149;51.196;6.204;2022-07-25T15:12:45;1.92;;;0.82;;
49131;SDS011;35149;51.196;6.204;2022-07-25T15:15:21;4.07;;;1.17;;
49131;SDS011;35149;51.196;6.204;2022-07-25T15:17:51;5.35;;;1.25;;
49131;SDS011;35149;51.196;6.204;2022-07-25T15:20:25;1.33;;;1.20;;
49131;SDS011;35149;51.196;6.204;2022-07-25T15:22:52;3.45;;;0.90;;
49131;SDS011;35149;51.196;6.204;2022-07-25T15:25:21;2.25;;;1.20;;
49131;SDS011;35149;51.196;6.204;2022-07-25T15:28:10;2.47;;;0.90;;
49131;SDS011;35149;51.196;6.204;2022-07-25T15:30:38;2.10;;;1.30;;
49131;SDS011;35149;51.196;6.204;2022-07-25T15:33:06;1.67;;;0.90;;
49131;SDS011;35149;51.196;6.204;2022-07-25T15:35:37;2.63;;;1.10;;
49131;SDS011;35149;51.196;6.204;2022-07-25T15:38:05;2.20;;;0.90;;